Time;durP1;ratioP1;P1;durP2;ratioP2;P2;SDS_P1;SDS_P2;PMS_P1;PMS_P2;Temp;Humidity;BMP_temperature;BMP_pressure;BME280_temperature;BME280_humidity;BME280_pressure;Samples;Min_cycle;Max_cycle;Signal;HPM_P1;HPM_P2
2021/05/10 00:03:22;;;;;;;8.50;5.20;;;18.00;55.70;;;;;;6205993;23;20154;-85
2021/05/10 00:06:19;;;;;;;8.20;5.28;;;18.00;55.70;;;;;;6205226;23;20147;-85
2021/05/10 00:12:17;;;;;;;7.95;5.30;;;17.90;55.70;;;;;;6205341;23;20142;-85
2021/05/10 00:18:23;;;;;;;6.93;4.85;;;18.00;55.60;;;;;;6206404;23;20189;-85
2021/05/10 00:21:04;;;;;;;9.70;5.68;;;18.00;55.60;;;;;;6155072;23;20178;-85
2021/05/10 00:26:49;;;;;;;6.65;5.10;;;18.00;55.70;;;;;;6206509;23;20131;-85
2021/05/10 00:29:35;;;;;;;9.95;5.30;;;17.90;55.60;;;;;;6154535;23;20186;-86
2021/05/10 00:32:08;;;;;;;6.78;5.03;;;18.00;55.90;;;;;;6156192;23;20142;-85
2021/05/10 00:34:43;;;;;;;6.50;5.20;;;18.00;55.70;;;;;;6154327;23;20147;-85
2021/05/10 00:37:30;;;;;;;8.32;5.22;;;18.00;55.70;;;;;;6155904;23;20137;-85
2021/05/10 00:40:00;;;;;;;8.18;5.75;;;18.00;55.70;;;;;;6206374;23;20138;-85
2021/05/10 00:43:14;;;;;;;7.95;4.95;;;18.00;55.80;;;;;;6157055;23;20276;-85
2021/05/10 00:53:31;;;;;;;9.75;5.60;;;17.90;55.80;;;;;;6178656;23;20535;-84
2021/05/10 00:56:24;;;;;;;8.43;5.30;;;17.90;55.70;;;;;;6152231;23;20160;-85
2021/05/10 00:59:28;;;;;;;10.45;5.25;;;17.90;55.60;;;;;;6127095;23;20155;-85
2021/05/10 01:05:19;;;;;;;8.48;4.97;;;18.00;55.70;;;;;;6178001;23;20139;-85
2021/05/10 01:08:09;;;;;;;7.07;4.95;;;17.90;55.70;;;;;;6127382;23;20143;-85
2021/05/10 01:10:39;;;;;;;8.88;5.35;;;18.00;55.70;;;;;;6152726;23;20140;-85
2021/05/10 01:16:28;;;;;;;9.30;5.72;;;17.90;55.70;;;;;;6177350;23;20139;-85
2021/05/10 01:18:56;;;;;;;8.35;5.22;;;17.90;55.70;;;;;;6127133;23;20147;-85
2021/05/10 01:21:58;;;;;;;6.50;5.00;;;17.90;55.70;;;;;;6127791;23;20164;-85
2021/05/10 01:24:25;;;;;;;7.10;4.82;;;17.90;55.80;;;;;;6151944;23;20165;-84
2021/05/10 01:27:01;;;;;;;7.45;5.30;;;17.90;55.70;;;;;;6127403;23;20146;-85
2021/05/10 01:29:27;;;;;;;8.07;5.43;;;17.90;55.80;;;;;;6152082;23;20131;-85
2021/05/10 01:32:26;;;;;;;9.07;5.82;;;17.90;55.80;;;;;;6152331;23;20165;-85
2021/05/10 01:34:53;;;;;;;6.35;5.28;;;17.90;55.80;;;;;;6151697;23;20144;-85
2021/05/10 01:37:55;;;;;;;9.13;5.22;;;17.90;55.80;;;;;;6125794;23;20143;-84
2021/05/10 01:40:30;;;;;;;6.57;5.13;;;17.90;55.90;;;;;;6176972;23;20179;-85
2021/05/10 01:43:06;;;;;;;7.10;5.00;;;17.90;55.80;;;;;;6151932;23;20167;-84
2021/05/10 01:49:04;;;;;;;6.15;5.07;;;17.90;55.70;;;;;;6177403;23;20162;-84
2021/05/10 01:52:08;;;;;;;9.45;5.47;;;17.90;55.80;;;;;;6141885;23;20237;-84
2021/05/10 01:55:25;;;;;;;7.75;5.28;;;17.90;55.80;;;;;;6180802;23;20130;-84
2021/05/10 01:57:58;;;;;;;7.20;5.60;;;17.90;55.80;;;;;;6207542;23;20147;-85
2021/05/10 02:04:00;;;;;;;8.70;5.10;;;17.90;55.80;;;;;;6207164;23;20170;-85
2021/05/10 02:17:26;;;;;;;8.93;5.45;;;17.90;55.80;;;;;;6207088;23;20187;-85
2021/05/10 02:26:33;;;;;;;6.70;4.82;;;17.90;55.90;;;;;;6206928;23;20187;-84
2021/05/10 02:29:01;;;;;;;8.30;5.75;;;17.90;55.90;;;;;;6156729;23;20180;-84
2021/05/10 02:32:07;;;;;;;5.95;5.03;;;17.90;56.00;;;;;;6157168;23;20169;-85
2021/05/10 02:38:08;;;;;;;8.90;5.57;;;17.90;55.80;;;;;;6207290;23;20142;-85
2021/05/10 02:40:47;;;;;;;9.55;5.72;;;17.90;56.00;;;;;;6156796;23;20178;-85
2021/05/10 02:43:15;;;;;;;7.50;4.97;;;17.90;55.90;;;;;;6156855;23;20147;-84
2021/05/10 02:46:12;;;;;;;7.88;5.47;;;17.90;56.00;;;;;;6155624;23;20154;-85
2021/05/10 02:48:45;;;;;;;6.60;5.40;;;17.90;55.90;;;;;;6181628;23;20131;-85
2021/05/10 02:51:11;;;;;;;8.80;5.50;;;17.90;55.90;;;;;;6156082;23;20186;-85
2021/05/10 02:53:38;;;;;;;8.32;5.35;;;17.90;56.00;;;;;;6132014;23;20211;-85
2021/05/10 02:56:05;;;;;;;8.05;5.47;;;17.90;56.00;;;;;;6156541;23;20155;-84
2021/05/10 02:58:36;;;;;;;6.35;4.63;;;17.80;55.90;;;;;;6181260;23;20135;-85
2021/05/10 03:01:13;;;;;;;7.03;5.47;;;17.80;56.00;;;;;;6155634;23;20167;-85
2021/05/10 03:04:08;;;;;;;7.13;5.10;;;17.90;56.00;;;;;;6156878;23;20147;-85
2021/05/10 03:06:45;;;;;;;7.47;5.60;;;17.90;56.00;;;;;;6180700;23;20154;-85
2021/05/10 03:12:36;;;;;;;8.02;5.40;;;17.90;56.00;;;;;;6206626;23;20142;-85
2021/05/10 03:19:22;;;;;;;8.15;5.40;;;17.80;56.00;;;;;;6207050;23;20184;-85
2021/05/10 03:22:39;;;;;;;8.15;5.80;;;17.90;56.00;;;;;;6207488;23;20613;-85
2021/05/10 03:25:37;;;;;;;8.50;5.25;;;17.90;55.80;;;;;;6207869;23;20142;-85
2021/05/10 03:32:19;;;;;;;11.32;5.60;;;17.80;55.90;;;;;;6207174;23;20134;-84
2021/05/10 03:34:52;;;;;;;8.80;5.25;;;17.80;55.90;;;;;;6034072;23;20158;-84
2021/05/10 03:37:30;;;;;;;7.88;5.32;;;17.80;56.10;;;;;;6010795;23;20154;-85
2021/05/10 03:43:30;;;;;;;6.63;4.97;;;17.80;56.00;;;;;;6058312;23;20222;-84
2021/05/10 03:49:32;;;;;;;6.68;5.25;;;17.80;56.10;;;;;;6058332;23;20156;-84
2021/05/10 03:58:57;;;;;;;9.55;5.88;;;17.80;56.10;;;;;;6057850;23;20162;-84
2021/05/10 04:13:58;;;;;;;6.28;5.07;;;17.80;55.80;;;;;;6181822;23;20138;-85
2021/05/10 04:16:40;;;;;;;6.03;5.03;;;17.90;55.80;;;;;;6132426;23;20644;-85
2021/05/10 04:19:14;;;;;;;6.43;5.18;;;17.90;55.80;;;;;;6140159;23;20164;-85
2021/05/10 04:25:37;;;;;;;6.78;5.65;;;17.90;55.80;;;;;;6115289;23;20249;-85
2021/05/10 04:28:37;;;;;;;8.75;5.30;;;17.90;55.90;;;;;;6067877;23;20149;-85
2021/05/10 04:35:08;;;;;;;6.70;5.50;;;17.90;55.70;;;;;;6115810;23;20648;-85
2021/05/10 04:41:06;;;;;;;7.50;5.03;;;18.00;55.60;;;;;;6115724;23;20252;-85
2021/05/10 04:43:52;;;;;;;6.82;5.30;;;18.00;55.50;;;;;;6092589;23;20513;-84
2021/05/10 04:49:44;;;;;;;6.63;5.05;;;18.10;55.50;;;;;;6143077;23;20193;-84
2021/05/10 04:52:53;;;;;;;7.60;5.38;;;18.10;55.40;;;;;;6131153;23;20197;-85
2021/05/10 04:55:20;;;;;;;6.25;5.10;;;18.10;55.30;;;;;;6180583;23;20152;-85
2021/05/10 04:57:51;;;;;;;6.97;5.20;;;18.10;55.30;;;;;;6155998;23;20155;-86
2021/05/10 05:00:18;;;;;;;5.93;5.28;;;18.10;55.30;;;;;;6130535;23;20174;-84
2021/05/10 05:03:12;;;;;;;7.68;5.25;;;18.10;55.30;;;;;;6154949;23;20142;-85
2021/05/10 05:12:51;;;;;;;6.47;5.10;;;18.10;55.20;;;;;;6215982;23;20199;-85
2021/05/10 05:15:25;;;;;;;5.95;4.80;;;18.10;55.30;;;;;;6131662;23;20174;-85
2021/05/10 05:17:55;;;;;;;7.25;5.35;;;18.10;55.20;;;;;;6180293;23;20139;-85
2021/05/10 05:20:46;;;;;;;6.55;4.70;;;18.20;55.10;;;;;;6154661;23;20202;-86
2021/05/10 05:23:38;;;;;;;6.60;5.60;;;18.20;55.00;;;;;;6153353;23;20154;-85
2021/05/10 05:26:06;;;;;;;6.82;4.97;;;18.20;55.00;;;;;;6152528;23;20171;-84
2021/05/10 05:28:48;;;;;;;6.43;5.10;;;18.20;55.00;;;;;;6130289;23;20219;-84
2021/05/10 05:35:33;;;;;;;7.18;5.57;;;18.20;55.20;;;;;;6206993;23;20137;-85
2021/05/10 05:38:43;;;;;;;5.70;5.10;;;18.30;55.20;;;;;;6179931;23;20159;-85
2021/05/10 05:41:30;;;;;;;6.20;5.28;;;18.20;55.20;;;;;;6179764;23;20174;-86
2021/05/10 05:43:56;;;;;;;6.38;5.10;;;18.30;55.20;;;;;;6177193;23;20135;-85
2021/05/10 05:46:30;;;;;;;7.70;5.20;;;18.20;55.20;;;;;;6127935;23;20166;-85
2021/05/10 05:48:57;;;;;;;6.50;5.13;;;18.20;55.20;;;;;;6129508;23;20633;-85
2021/05/10 05:51:23;;;;;;;7.03;5.25;;;18.20;56.00;;;;;;6135045;23;20185;-85
2021/05/10 05:53:55;;;;;;;7.65;5.18;;;18.30;55.20;;;;;;6159436;23;20134;-84
2021/05/10 05:56:28;;;;;;;6.97;4.72;;;18.30;55.10;;;;;;6137352;23;20127;-84
2021/05/10 05:58:54;;;;;;;5.57;4.93;;;18.20;55.30;;;;;;6136533;23;20229;-84
2021/05/10 06:01:23;;;;;;;7.10;5.30;;;18.30;55.30;;;;;;6134819;23;20499;-84
2021/05/10 06:03:51;;;;;;;6.07;4.60;;;18.30;55.20;;;;;;6136012;23;20151;-84
2021/05/10 06:06:17;;;;;;;6.05;4.88;;;18.30;55.20;;;;;;6133944;23;20146;-83
2021/05/10 06:08:47;;;;;;;6.40;5.30;;;18.30;55.10;;;;;;6161144;23;20139;-84
2021/05/10 06:11:13;;;;;;;6.45;4.82;;;18.30;55.20;;;;;;6147253;23;20206;-84
2021/05/10 06:13:52;;;;;;;5.60;4.95;;;18.30;55.10;;;;;;6103385;23;20179;-84
2021/05/10 06:28:06;;;;;;;6.93;5.20;;;18.30;55.10;;;;;;6187840;23;20729;-84
2021/05/10 06:30:44;;;;;;;6.72;5.25;;;18.40;55.10;;;;;;6154990;23;20198;-83
2021/05/10 06:33:10;;;;;;;6.07;4.57;;;18.40;55.20;;;;;;6136837;23;20138;-83
2021/05/10 06:39:11;;;;;;;6.45;4.97;;;18.40;55.10;;;;;;6212166;23;20158;-83
2021/05/10 06:41:41;;;;;;;6.75;4.90;;;18.40;55.10;;;;;;6050740;23;20189;-79
2021/05/10 06:44:17;;;;;;;7.18;5.03;;;18.40;55.10;;;;;;6052249;23;20213;-82
2021/05/10 06:46:43;;;;;;;7.88;5.05;;;18.30;55.10;;;;;;6051366;23;20196;-80
2021/05/10 06:49:12;;;;;;;6.22;5.07;;;18.40;55.00;;;;;;6051932;23;20137;-79
2021/05/10 06:51:47;;;;;;;7.45;4.75;;;18.30;55.10;;;;;;6033841;23;20213;-79
2021/05/10 06:54:21;;;;;;;6.45;5.20;;;18.30;55.20;;;;;;6052366;23;20133;-81
2021/05/10 06:56:47;;;;;;;6.07;4.97;;;18.30;55.20;;;;;;6073777;23;20164;-78
2021/05/10 06:59:13;;;;;;;6.30;5.28;;;18.30;55.30;;;;;;6031659;23;20149;-80
2021/05/10 07:01:45;;;;;;;8.40;5.70;;;18.30;55.10;;;;;;6031263;23;20209;-84
2021/05/10 07:04:12;;;;;;;7.85;5.30;;;18.30;55.10;;;;;;6032371;23;20148;-82
2021/05/10 07:06:41;;;;;;;6.65;5.10;;;18.40;55.20;;;;;;6045246;23;20276;-84
2021/05/10 07:09:18;;;;;;;5.97;4.78;;;18.40;55.00;;;;;;6050202;23;20542;-84
2021/05/10 07:11:53;;;;;;;6.68;5.28;;;18.40;55.10;;;;;;6057255;23;20186;-82
2021/05/10 07:14:22;;;;;;;7.80;5.43;;;18.40;55.20;;;;;;6054475;23;20150;-81
2021/05/10 07:16:51;;;;;;;7.85;5.20;;;18.40;55.10;;;;;;6080278;23;20164;-80
2021/05/10 07:19:18;;;;;;;7.60;5.22;;;18.40;55.20;;;;;;6149256;23;20151;-82
2021/05/10 07:21:44;;;;;;;8.68;5.68;;;18.40;55.30;;;;;;6192065;23;20166;-81
2021/05/10 07:24:11;;;;;;;6.20;4.97;;;18.40;55.30;;;;;;6164484;23;20139;-82
2021/05/10 07:26:39;;;;;;;7.95;5.65;;;18.40;55.40;;;;;;6192744;23;20131;-80
2021/05/10 07:29:06;;;;;;;9.05;5.57;;;18.40;55.60;;;;;;6169655;23;20127;-81
2021/05/10 07:31:33;;;;;;;7.10;5.80;;;18.50;55.80;;;;;;6192970;23;20190;-82
2021/05/10 07:33:59;;;;;;;6.43;4.90;;;18.50;55.30;;;;;;6168760;23;20142;-82
2021/05/10 07:36:26;;;;;;;6.30;5.18;;;18.50;55.50;;;;;;6192166;23;20131;-82
2021/05/10 07:38:53;;;;;;;6.35;5.20;;;18.50;55.40;;;;;;6171321;23;20211;-82
2021/05/10 07:41:25;;;;;;;5.32;4.82;;;18.50;55.30;;;;;;6198529;23;20221;-82
2021/05/10 07:43:52;;;;;;;7.47;5.05;;;18.50;55.20;;;;;;6149834;23;20138;-82
2021/05/10 07:46:26;;;;;;;5.75;5.15;;;18.40;55.20;;;;;;6197643;23;20131;-81
2021/05/10 07:48:52;;;;;;;6.57;4.65;;;18.40;55.40;;;;;;6148140;23;20146;-81
2021/05/10 07:51:21;;;;;;;7.57;5.50;;;18.50;55.40;;;;;;6175436;23;20539;-81
2021/05/10 07:53:49;;;;;;;13.07;5.60;;;18.50;55.40;;;;;;6147734;23;20515;-84
2021/05/10 07:56:18;;;;;;;12.73;5.78;;;18.50;55.50;;;;;;6121934;23;20159;-84
2021/05/10 07:58:47;;;;;;;15.98;5.68;;;18.50;55.50;;;;;;6145337;23;20138;-81
2021/05/10 08:01:18;;;;;;;15.00;5.78;;;18.50;55.50;;;;;;6146076;23;20171;-78
2021/05/10 08:03:46;;;;;;;13.10;6.30;;;18.50;55.50;;;;;;6145641;23;20190;-80
2021/05/10 08:06:13;;;;;;;23.13;6.30;;;18.50;55.50;;;;;;6144217;23;20153;-84
2021/05/10 08:08:47;;;;;;;24.38;6.20;;;18.50;55.50;;;;;;6169880;23;20142;-79
2021/05/10 08:11:20;;;;;;;23.95;6.53;;;18.50;55.60;;;;;;6171906;23;20145;-79
2021/05/10 08:13:51;;;;;;;10.23;5.35;;;18.50;55.60;;;;;;6147770;23;20139;-79
2021/05/10 08:16:19;;;;;;;22.20;5.95;;;18.50;55.60;;;;;;6201785;23;20131;-82
2021/05/10 08:18:45;;;;;;;12.20;5.95;;;18.60;55.80;;;;;;6147995;23;20142;-82
2021/05/10 08:21:12;;;;;;;14.07;6.18;;;18.60;55.50;;;;;;6172200;23;20250;-80
2021/05/10 08:23:40;;;;;;;11.20;6.13;;;18.60;55.50;;;;;;6169359;23;20141;-80
2021/05/10 08:26:06;;;;;;;13.60;5.60;;;18.70;55.50;;;;;;6190068;23;20535;-82
2021/05/10 08:28:33;;;;;;;13.20;5.90;;;18.70;55.30;;;;;;6118984;23;20139;-80
2021/05/10 08:31:08;;;;;;;10.23;7.25;;;18.60;55.50;;;;;;6147840;23;20202;-79
2021/05/10 08:33:35;;;;;;;9.02;6.15;;;18.60;55.80;;;;;;6148036;23;20150;-80
2021/05/10 08:36:01;;;;;;;7.65;5.10;;;18.60;55.60;;;;;;6147873;23;20157;-80
2021/05/10 08:38:30;;;;;;;11.75;5.72;;;18.60;55.40;;;;;;6144020;23;20147;-80
2021/05/10 08:40:58;;;;;;;8.90;5.70;;;18.60;55.50;;;;;;6172393;23;20162;-80
2021/05/10 08:43:26;;;;;;;10.55;5.30;;;18.60;55.50;;;;;;6121890;23;20151;-81
2021/05/10 08:46:00;;;;;;;8.93;5.60;;;18.60;55.60;;;;;;6122565;23;20241;-80
2021/05/10 08:48:28;;;;;;;10.43;5.68;;;18.50;55.50;;;;;;6141033;23;20218;-82
2021/05/10 08:50:54;;;;;;;6.72;5.18;;;18.50;55.50;;;;;;6135335;23;20192;-78
2021/05/10 08:53:36;;;;;;;10.90;5.78;;;18.50;55.50;;;;;;6185007;23;20132;-80
2021/05/10 08:56:03;;;;;;;10.35;5.55;;;18.50;55.50;;;;;;6157999;23;20131;-81
2021/05/10 08:58:39;;;;;;;11.32;5.55;;;18.60;55.50;;;;;;6140626;23;20234;-83
2021/05/10 09:01:08;;;;;;;10.93;5.40;;;18.60;55.50;;;;;;6147873;23;20166;-82
2021/05/10 09:03:40;;;;;;;10.73;5.57;;;18.60;55.40;;;;;;6171313;23;20189;-84
2021/05/10 09:06:11;;;;;;;12.57;5.82;;;18.60;55.50;;;;;;6146507;23;20124;-83
2021/05/10 09:08:45;;;;;;;9.40;5.60;;;18.50;55.50;;;;;;6170098;23;20128;-84
2021/05/10 09:11:17;;;;;;;12.77;5.63;;;18.60;55.50;;;;;;6149976;23;20154;-83
2021/05/10 09:13:44;;;;;;;13.30;5.47;;;18.60;55.40;;;;;;6144091;23;20143;-84
2021/05/10 09:16:13;;;;;;;11.10;5.10;;;18.60;55.40;;;;;;6143899;23;20164;-84
2021/05/10 09:18:39;;;;;;;10.50;5.60;;;18.60;55.50;;;;;;6170080;23;20158;-85
2021/05/10 09:21:18;;;;;;;11.70;5.82;;;18.60;55.50;;;;;;6125800;23;20182;-85
2021/05/10 09:23:47;;;;;;;10.88;6.20;;;18.60;55.50;;;;;;6129725;23;20158;-82
2021/05/10 09:26:31;;;;;;;12.48;5.57;;;18.60;55.50;;;;;;6174303;23;20134;-82
2021/05/10 09:28:59;;;;;;;14.35;5.32;;;18.60;55.40;;;;;;6173359;23;20203;-81
2021/05/10 09:31:29;;;;;;;10.20;5.50;;;18.60;55.40;;;;;;6173198;23;20190;-82
2021/05/10 09:33:55;;;;;;;12.98;5.72;;;18.60;55.40;;;;;;6149412;23;20131;-82
2021/05/10 09:36:46;;;;;;;9.55;5.93;;;18.60;55.40;;;;;;6174423;23;20507;-81
2021/05/10 09:39:30;;;;;;;9.77;5.90;;;18.60;55.30;;;;;;6175983;23;20138;-81
2021/05/10 09:41:58;;;;;;;10.57;5.28;;;18.70;55.30;;;;;;6175074;23;20175;-81
2021/05/10 09:44:44;;;;;;;9.57;5.63;;;18.70;55.30;;;;;;6125324;23;20496;-81
2021/05/10 09:47:20;;;;;;;9.38;5.90;;;18.70;55.10;;;;;;6177580;23;20653;-81
2021/05/10 09:49:51;;;;;;;8.68;5.57;;;18.80;55.10;;;;;;6149665;23;20146;-81
2021/05/10 09:52:21;;;;;;;11.30;5.43;;;18.80;55.10;;;;;;6174868;23;20138;-81
2021/05/10 09:54:59;;;;;;;8.70;6.07;;;18.80;55.00;;;;;;6173826;23;20127;-81
2021/05/10 09:57:26;;;;;;;9.20;5.78;;;18.80;55.10;;;;;;6150694;23;20177;-80
2021/05/10 10:00:14;;;;;;;7.68;5.40;;;18.80;55.10;;;;;;6174346;23;20135;-81
2021/05/10 10:02:46;;;;;;;7.53;5.70;;;18.70;55.10;;;;;;6200339;23;20146;-80
2021/05/10 10:05:15;;;;;;;7.88;5.50;;;18.70;55.10;;;;;;6149539;23;20483;-81
2021/05/10 10:07:42;;;;;;;9.85;5.90;;;18.70;55.10;;;;;;6174991;23;20127;-80
2021/05/10 10:10:13;;;;;;;9.02;5.50;;;18.80;55.10;;;;;;6150350;23;20189;-80
2021/05/10 10:12:47;;;;;;;10.50;5.93;;;18.80;55.00;;;;;;6174704;23;20123;-80
2021/05/10 10:15:13;;;;;;;7.72;4.90;;;18.80;55.00;;;;;;6199413;23;20162;-81
2021/05/10 10:17:47;;;;;;;10.13;5.90;;;18.80;54.90;;;;;;6199512;23;20142;-79
2021/05/10 10:20:14;;;;;;;10.15;5.60;;;18.80;54.90;;;;;;6174033;23;20164;-83
2021/05/10 10:22:42;;;;;;;9.23;5.43;;;18.80;54.90;;;;;;6173786;23;20143;-81
2021/05/10 10:25:10;;;;;;;9.68;5.80;;;18.80;55.00;;;;;;6173043;23;20131;-81
2021/05/10 10:27:36;;;;;;;9.10;5.60;;;18.70;55.00;;;;;;6173617;23;20525;-79
2021/05/10 10:30:02;;;;;;;8.75;5.40;;;18.70;55.10;;;;;;6150294;23;20606;-80
2021/05/10 10:32:30;;;;;;;9.15;5.72;;;18.70;55.20;;;;;;6194844;23;20213;-81
2021/05/10 10:34:56;;;;;;;9.15;5.70;;;18.70;55.20;;;;;;6168849;23;20131;-81
2021/05/10 10:37:24;;;;;;;9.40;5.75;;;18.70;55.30;;;;;;6143950;23;20151;-81
2021/05/10 10:39:51;;;;;;;6.30;5.43;;;18.70;55.30;;;;;;6142987;23;20226;-81
2021/05/10 10:42:25;;;;;;;11.27;6.38;;;18.70;55.30;;;;;;6193149;23;20246;-81
2021/05/10 10:45:03;;;;;;;9.40;5.40;;;18.70;55.30;;;;;;6168991;23;20175;-81
2021/05/10 10:47:59;;;;;;;9.35;6.00;;;18.70;55.30;;;;;;6167143;23;20143;-81
2021/05/10 10:50:27;;;;;;;11.80;5.60;;;18.70;55.20;;;;;;6143138;23;20157;-82
2021/05/10 10:52:58;;;;;;;9.40;5.63;;;18.70;55.20;;;;;;6118903;23;20158;-80
2021/05/10 10:55:27;;;;;;;11.13;5.63;;;18.70;55.30;;;;;;6197220;23;20164;-79
2021/05/10 10:57:53;;;;;;;7.70;5.45;;;18.70;55.20;;;;;;6197014;23;20134;-79
2021/05/10 11:00:19;;;;;;;9.23;5.63;;;18.70;55.20;;;;;;6149762;23;20555;-80
2021/05/10 11:02:52;;;;;;;8.25;5.65;;;18.80;55.20;;;;;;6120678;23;20154;-80
2021/05/10 11:05:25;;;;;;;9.95;5.70;;;18.80;55.30;;;;;;6148110;23;20143;-80
2021/05/10 11:07:54;;;;;;;7.90;5.35;;;18.80;55.30;;;;;;6124124;23;20174;-81
2021/05/10 11:10:54;;;;;;;9.65;5.85;;;18.80;55.30;;;;;;6170169;23;20147;-79
2021/05/10 11:13:30;;;;;;;9.48;5.90;;;18.70;55.30;;;;;;6173843;23;20147;-79
2021/05/10 11:16:14;;;;;;;9.88;5.53;;;18.70;55.30;;;;;;6169294;23;20145;-81
2021/05/10 11:18:55;;;;;;;8.05;5.85;;;18.80;55.30;;;;;;6120447;23;20146;-80
2021/05/10 11:21:24;;;;;;;7.07;5.13;;;18.80;55.30;;;;;;6143078;23;20182;-80
2021/05/10 11:23:53;;;;;;;7.20;5.25;;;18.80;55.20;;;;;;6188487;23;20463;-80
2021/05/10 11:26:39;;;;;;;9.35;5.82;;;18.80;55.20;;;;;;6188998;23;20556;-82
2021/05/10 11:29:34;;;;;;;6.68;5.22;;;18.80;55.30;;;;;;6160077;23;20241;-80
2021/05/10 11:32:21;;;;;;;10.20;5.97;;;18.80;55.30;;;;;;6042698;23;20240;-79
2021/05/10 11:34:47;;;;;;;8.80;6.10;;;18.80;55.20;;;;;;6063399;23;20264;-78
2021/05/10 11:37:15;;;;;;;9.55;5.90;;;18.80;55.20;;;;;;6042821;23;20633;-82
2021/05/10 11:39:40;;;;;;;7.95;5.45;;;18.80;55.10;;;;;;6042636;23;20150;-80
2021/05/10 11:42:08;;;;;;;6.95;5.85;;;18.80;55.10;;;;;;6066136;23;20224;-80
2021/05/10 11:44:41;;;;;;;9.45;5.68;;;18.80;55.10;;;;;;6042949;23;20138;-80
2021/05/10 11:47:35;;;;;;;6.65;5.63;;;18.80;55.10;;;;;;6067191;23;20622;-81
2021/05/10 11:50:03;;;;;;;11.18;5.68;;;18.80;55.10;;;;;;6067288;23;20616;-81
2021/05/10 11:52:31;;;;;;;8.57;5.80;;;18.80;55.10;;;;;;6018732;23;20236;-81
2021/05/10 11:54:58;;;;;;;6.88;5.63;;;18.80;55.10;;;;;;6068413;23;20643;-81
2021/05/10 11:57:27;;;;;;;9.52;5.70;;;18.80;55.20;;;;;;6023072;23;20153;-80
2021/05/10 11:59:56;;;;;;;8.75;6.07;;;18.80;55.20;;;;;;6047537;23;20237;-81
2021/05/10 12:02:30;;;;;;;8.80;5.60;;;18.80;55.10;;;;;;6071704;23;20185;-81
2021/05/10 12:05:05;;;;;;;10.25;6.00;;;18.80;55.10;;;;;;6046526;23;20196;-81
2021/05/10 12:07:39;;;;;;;14.02;6.05;;;18.80;55.20;;;;;;6043230;23;20146;-82
2021/05/10 12:10:10;;;;;;;7.55;5.43;;;18.80;55.20;;;;;;6097837;23;20156;-79
2021/05/10 12:12:44;;;;;;;7.88;5.70;;;18.80;55.30;;;;;;6175114;23;20568;-81
2021/05/10 12:15:27;;;;;;;8.52;5.40;;;18.90;55.20;;;;;;6136800;23;20237;-81
2021/05/10 12:17:56;;;;;;;10.68;5.90;;;18.90;55.70;;;;;;6187805;23;20137;-81
2021/05/10 12:20:27;;;;;;;6.93;5.53;;;18.90;55.10;;;;;;6158967;23;20154;-80
2021/05/10 12:22:54;;;;;;;7.03;5.90;;;18.80;55.10;;;;;;6159967;23;20142;-80
2021/05/10 12:25:26;;;;;;;7.10;5.50;;;18.80;55.20;;;;;;6159082;23;20474;-80
2021/05/10 12:27:57;;;;;;;8.65;5.70;;;18.80;55.20;;;;;;6185313;23;20141;-80
2021/05/10 12:30:28;;;;;;;11.90;6.10;;;18.80;55.20;;;;;;6159037;23;20198;-80
2021/05/10 12:32:55;;;;;;;9.55;5.80;;;18.80;55.20;;;;;;6186591;23;20137;-80
2021/05/10 12:35:27;;;;;;;7.00;5.80;;;18.80;55.20;;;;;;6159504;23;20139;-81
2021/05/10 12:37:54;;;;;;;8.07;5.70;;;18.80;55.30;;;;;;6186554;23;20128;-80
2021/05/10 12:40:23;;;;;;;7.32;5.90;;;18.80;55.30;;;;;;6187497;23;20567;-80
2021/05/10 12:43:08;;;;;;;10.27;5.88;;;18.80;55.30;;;;;;6187857;23;20459;-80
2021/05/10 12:45:35;;;;;;;8.05;5.75;;;18.80;55.30;;;;;;6187859;23;20143;-81
2021/05/10 12:48:20;;;;;;;8.77;5.85;;;18.80;55.40;;;;;;6187311;23;20166;-82
2021/05/10 12:50:52;;;;;;;7.57;5.63;;;18.80;55.40;;;;;;6187684;23;20149;-80
2021/05/10 12:53:54;;;;;;;6.75;5.57;;;18.80;55.40;;;;;;6188075;23;20135;-81
2021/05/10 12:56:20;;;;;;;9.82;6.30;;;18.80;55.40;;;;;;6137491;23;20192;-81
2021/05/10 12:58:47;;;;;;;7.93;5.82;;;18.80;55.40;;;;;;6137342;23;20154;-81
2021/05/10 13:01:19;;;;;;;7.50;5.65;;;18.90;55.30;;;;;;6137143;23;20175;-80
2021/05/10 13:03:46;;;;;;;7.85;5.88;;;18.80;55.40;;;;;;6112819;23;20177;-81
2021/05/10 13:06:38;;;;;;;8.80;6.45;;;18.80;55.40;;;;;;6137602;23;20214;-81
2021/05/10 13:09:08;;;;;;;6.20;5.38;;;18.80;55.40;;;;;;6158696;23;20222;-80
2021/05/10 13:11:43;;;;;;;8.07;5.82;;;18.80;55.30;;;;;;6161116;23;20497;-80
2021/05/10 13:36:35;;;;;;;8.15;5.65;;;18.90;55.30;;;;;;6163843;23;20158;-81
2021/05/10 13:39:16;;;;;;;8.57;5.90;;;18.90;55.20;;;;;;6188598;23;20567;-82
2021/05/10 13:41:56;;;;;;;7.47;5.40;;;18.90;55.20;;;;;;6163211;23;20173;-81
2021/05/10 13:44:21;;;;;;;7.32;6.07;;;18.90;55.20;;;;;;6187669;23;20231;-80
2021/05/10 13:46:51;;;;;;;8.00;5.80;;;18.90;55.30;;;;;;6161857;23;20575;-81
2021/05/10 13:49:17;;;;;;;8.02;6.07;;;18.90;55.30;;;;;;6160861;23;20218;-82
2021/05/10 13:51:44;;;;;;;8.63;6.10;;;18.90;55.30;;;;;;6188187;23;20473;-80
2021/05/10 13:54:29;;;;;;;7.60;5.47;;;18.90;55.30;;;;;;6161568;23;20221;-80
2021/05/10 13:56:56;;;;;;;6.80;5.78;;;19.00;55.30;;;;;;6184282;23;20143;-80
2021/05/10 13:59:25;;;;;;;6.97;5.28;;;18.90;55.30;;;;;;6164410;23;20127;-81
2021/05/10 14:01:52;;;;;;;8.70;5.75;;;18.90;55.30;;;;;;6138130;23;20179;-83
2021/05/10 14:04:20;;;;;;;9.38;6.28;;;18.90;55.30;;;;;;6136573;23;20151;-81
2021/05/10 14:06:45;;;;;;;8.15;5.70;;;18.90;55.30;;;;;;6161651;23;20162;-82
2021/05/10 14:09:12;;;;;;;8.60;5.68;;;18.90;55.30;;;;;;6188320;23;20506;-81
2021/05/10 14:11:39;;;;;;;7.75;5.50;;;18.90;55.30;;;;;;6160851;23;20146;-82
2021/05/10 14:14:05;;;;;;;8.98;5.60;;;18.90;55.30;;;;;;6162731;23;20154;-81
2021/05/10 14:16:32;;;;;;;7.93;5.68;;;19.00;55.50;;;;;;6190637;23;20142;-80
2021/05/10 14:19:21;;;;;;;6.75;5.90;;;19.00;55.10;;;;;;6187382;23;20177;-79
2021/05/10 14:22:03;;;;;;;7.88;5.80;;;19.00;55.20;;;;;;6187082;23;20189;-81
2021/05/10 14:24:34;;;;;;;6.75;5.28;;;19.00;55.20;;;;;;6188397;23;20507;-80
2021/05/10 14:27:02;;;;;;;6.63;5.65;;;19.00;55.30;;;;;;6187845;23;20516;-79
2021/05/10 14:29:28;;;;;;;8.02;6.10;;;19.00;55.30;;;;;;6161207;23;20135;-80
2021/05/10 14:31:54;;;;;;;6.75;5.43;;;19.00;55.40;;;;;;6160601;23;20194;-80
2021/05/10 14:34:21;;;;;;;6.43;5.32;;;19.00;55.30;;;;;;6187056;23;20466;-79
2021/05/10 14:36:47;;;;;;;8.27;5.93;;;19.00;55.40;;;;;;6186249;23;20582;-81
2021/05/10 14:39:15;;;;;;;9.38;5.85;;;19.00;55.60;;;;;;6138099;23;20150;-79
2021/05/10 14:41:42;;;;;;;8.18;5.88;;;19.00;55.70;;;;;;6187690;23;20205;-82
2021/05/10 14:44:10;;;;;;;10.95;6.03;;;19.00;55.70;;;;;;6187540;23;20522;-80
2021/05/10 14:46:38;;;;;;;8.05;6.05;;;19.00;55.70;;;;;;6187475;23;20138;-80
2021/05/10 14:49:04;;;;;;;6.70;5.97;;;19.00;55.60;;;;;;6160382;23;20252;-81
2021/05/10 14:51:31;;;;;;;7.47;5.95;;;19.00;55.50;;;;;;6160062;23;20138;-79
2021/05/10 14:53:59;;;;;;;7.80;5.97;;;19.00;55.60;;;;;;6186118;23;20194;-81
2021/05/10 14:56:26;;;;;;;7.10;5.90;;;19.00;55.60;;;;;;6163150;23;20169;-83
2021/05/10 14:58:52;;;;;;;7.38;6.05;;;19.00;55.50;;;;;;6162233;23;20564;-83
2021/05/10 15:01:19;;;;;;;8.23;6.25;;;19.00;55.60;;;;;;6161483;23;20305;-80
2021/05/10 15:03:46;;;;;;;7.63;6.22;;;19.00;55.50;;;;;;6186366;23;20134;-81
2021/05/10 15:06:11;;;;;;;9.25;5.70;;;19.00;55.30;;;;;;6160179;23;20139;-81
2021/05/10 15:08:37;;;;;;;8.65;6.25;;;19.10;55.30;;;;;;6189311;23;20567;-79
2021/05/10 15:11:03;;;;;;;9.20;5.90;;;19.10;55.20;;;;;;6190997;23;20161;-80
2021/05/10 15:13:30;;;;;;;8.82;6.28;;;19.10;55.00;;;;;;6167755;23;20144;-79
2021/05/10 15:15:58;;;;;;;6.88;5.95;;;19.10;55.00;;;;;;6193841;23;20151;-80
2021/05/10 15:18:33;;;;;;;7.15;6.10;;;19.10;54.90;;;;;;6168029;23;20127;-82
2021/05/10 15:21:09;;;;;;;9.15;5.65;;;19.10;54.90;;;;;;6145507;23;20189;-81
2021/05/10 15:23:41;;;;;;;8.48;6.03;;;19.10;54.50;;;;;;6146577;23;20154;-81
2021/05/10 15:26:08;;;;;;;7.03;6.00;;;19.10;54.50;;;;;;6144592;23;20486;-81
2021/05/10 15:28:45;;;;;;;8.90;5.82;;;19.10;54.50;;;;;;6195365;23;20459;-81
2021/05/10 15:31:11;;;;;;;7.05;5.60;;;19.10;54.50;;;;;;6169900;23;20194;-81
2021/05/10 15:33:39;;;;;;;7.35;6.25;;;19.10;54.30;;;;;;6170448;23;20135;-81
2021/05/10 15:36:06;;;;;;;7.15;6.00;;;19.10;54.40;;;;;;6170614;23;20155;-81
2021/05/10 15:38:35;;;;;;;7.85;6.28;;;19.10;54.50;;;;;;6146260;23;20131;-82
2021/05/10 15:41:03;;;;;;;7.22;5.90;;;19.10;54.50;;;;;;6121516;23;20186;-83
2021/05/10 15:43:29;;;;;;;7.40;6.28;;;19.10;54.10;;;;;;6122821;23;20238;-82
2021/05/10 15:45:54;;;;;;;6.65;5.88;;;19.10;54.50;;;;;;6121570;23;20150;-82
2021/05/10 15:48:30;;;;;;;7.40;6.07;;;19.10;54.10;;;;;;6145947;23;20203;-82
2021/05/10 15:50:58;;;;;;;7.22;6.03;;;19.10;54.20;;;;;;6168184;23;20162;-80
2021/05/10 15:53:29;;;;;;;6.65;5.95;;;19.10;53.90;;;;;;6143519;23;20142;-80